sensor_id;sensor_type;location;lat;lon;timestamp;P1;durP1;ratioP1;P2;durP2;ratioP2
67528;SDS011;54366;51.980;5.856;2024-03-29T00:01:28;2.03;;;0.40;;
67528;SDS011;54366;51.980;5.856;2024-03-29T00:03:54;1.15;;;0.38;;
67528;SDS011;54366;51.980;5.856;2024-03-29T00:06:20;2.08;;;0.55;;
67528;SDS011;54366;51.980;5.856;2024-03-29T00:08:47;1.88;;;0.40;;
67528;SDS011;54366;51.980;5.856;2024-03-29T00:11:13;3.60;;;0.60;;
67528;SDS011;54366;51.980;5.856;2024-03-29T00:13:39;2.65;;;0.75;;
67528;SDS011;54366;51.980;5.856;2024-03-29T00:16:06;0.77;;;0.30;;
67528;SDS011;54366;51.980;5.856;2024-03-29T00:18:32;0.88;;;0.30;;
67528;SDS011;54366;51.980;5.856;2024-03-29T00:20:58;1.67;;;0.40;;
67528;SDS011;54366;51.980;5.856;2024-03-29T00:23:25;2.05;;;0.35;;
67528;SDS011;54366;51.980;5.856;2024-03-29T00:25:52;2.17;;;0.50;;
67528;SDS011;54366;51.980;5.856;2024-03-29T00:28:18;2.05;;;0.40;;
67528;SDS011;54366;51.980;5.856;2024-03-29T00:30:44;2.45;;;0.45;;
67528;SDS011;54366;51.980;5.856;2024-03-29T00:33:10;0.93;;;0.38;;
67528;SDS011;54366;51.980;5.856;2024-03-29T00:35:37;1.85;;;0.40;;
67528;SDS011;54366;51.980;5.856;2024-03-29T00:38:03;4.07;;;0.73;;
67528;SDS011;54366;51.980;5.856;2024-03-29T00:40:29;2.72;;;0.60;;
67528;SDS011;54366;51.980;5.856;2024-03-29T00:42:56;1.50;;;0.40;;
67528;SDS011;54366;51.980;5.856;2024-03-29T00:45:22;3.22;;;0.70;;
67528;SDS011;54366;51.980;5.856;2024-03-29T00:47:48;2.20;;;0.47;;
67528;SDS011;54366;51.980;5.856;2024-03-29T00:50:14;1.75;;;0.40;;
67528;SDS011;54366;51.980;5.856;2024-03-29T00:52:41;2.47;;;0.50;;
67528;SDS011;54366;51.980;5.856;2024-03-29T00:55:07;2.45;;;0.45;;
67528;SDS011;54366;51.980;5.856;2024-03-29T00:57:34;2.72;;;0.40;;
67528;SDS011;54366;51.980;5.856;2024-03-29T01:00:00;3.63;;;0.73;;
67528;SDS011;54366;51.980;5.856;2024-03-29T01:02:26;1.40;;;0.30;;
67528;SDS011;54366;51.980;5.856;2024-03-29T01:04:53;2.55;;;0.43;;
67528;SDS011;54366;51.980;5.856;2024-03-29T01:07:19;1.50;;;0.38;;
67528;SDS011;54366;51.980;5.856;2024-03-29T01:09:45;2.53;;;0.30;;
67528;SDS011;54366;51.980;5.856;2024-03-29T01:12:11;2.70;;;0.35;;
67528;SDS011;54366;51.980;5.856;2024-03-29T01:14:38;1.92;;;0.60;;
67528;SDS011;54366;51.980;5.856;2024-03-29T01:17:04;1.55;;;0.30;;
67528;SDS011;54366;51.980;5.856;2024-03-29T01:19:32;1.25;;;0.63;;
67528;SDS011;54366;51.980;5.856;2024-03-29T01:21:58;1.10;;;0.43;;
67528;SDS011;54366;51.980;5.856;2024-03-29T01:24:25;2.92;;;0.50;;
67528;SDS011;54366;51.980;5.856;2024-03-29T01:26:51;1.30;;;0.30;;
67528;SDS011;54366;51.980;5.856;2024-03-29T01:29:17;1.58;;;0.30;;
67528;SDS011;54366;51.980;5.856;2024-03-29T01:31:43;1.00;;;0.43;;
67528;SDS011;54366;51.980;5.856;2024-03-29T01:34:10;0.82;;;0.20;;
67528;SDS011;54366;51.980;5.856;2024-03-29T01:36:36;2.40;;;0.50;;
67528;SDS011;54366;51.980;5.856;2024-03-29T01:39:03;2.70;;;0.60;;
67528;SDS011;54366;51.980;5.856;2024-03-29T01:41:29;1.15;;;0.40;;
67528;SDS011;54366;51.980;5.856;2024-03-29T01:43:56;1.90;;;0.50;;
67528;SDS011;54366;51.980;5.856;2024-03-29T01:46:23;2.55;;;0.43;;
67528;SDS011;54366;51.980;5.856;2024-03-29T01:48:53;1.63;;;0.40;;
67528;SDS011;54366;51.980;5.856;2024-03-29T01:51:21;1.08;;;0.30;;
67528;SDS011;54366;51.980;5.856;2024-03-29T01:53:48;1.48;;;0.40;;
67528;SDS011;54366;51.980;5.856;2024-03-29T01:56:18;1.25;;;0.40;;
67528;SDS011;54366;51.980;5.856;2024-03-29T01:58:46;1.42;;;0.30;;
67528;SDS011;54366;51.980;5.856;2024-03-29T02:01:15;2.20;;;0.45;;
67528;SDS011;54366;51.980;5.856;2024-03-29T02:03:42;1.08;;;0.30;;
67528;SDS011;54366;51.980;5.856;2024-03-29T02:06:08;2.65;;;0.43;;
67528;SDS011;54366;51.980;5.856;2024-03-29T02:08:39;1.40;;;0.40;;
67528;SDS011;54366;51.980;5.856;2024-03-29T02:11:05;1.63;;;0.40;;
67528;SDS011;54366;51.980;5.856;2024-03-29T02:13:32;1.10;;;0.30;;
67528;SDS011;54366;51.980;5.856;2024-03-29T02:15:58;1.13;;;0.30;;
67528;SDS011;54366;51.980;5.856;2024-03-29T02:18:25;1.00;;;0.30;;
67528;SDS011;54366;51.980;5.856;2024-03-29T02:20:51;1.08;;;0.30;;
67528;SDS011;54366;51.980;5.856;2024-03-29T02:23:19;0.95;;;0.30;;
67528;SDS011;54366;51.980;5.856;2024-03-29T02:25:51;1.10;;;0.30;;
67528;SDS011;54366;51.980;5.856;2024-03-29T02:28:18;1.67;;;0.30;;
67528;SDS011;54366;51.980;5.856;2024-03-29T02:30:45;1.90;;;0.50;;
67528;SDS011;54366;51.980;5.856;2024-03-29T02:33:12;1.65;;;0.40;;
67528;SDS011;54366;51.980;5.856;2024-03-29T02:35:38;3.22;;;0.40;;
67528;SDS011;54366;51.980;5.856;2024-03-29T02:38:04;1.55;;;0.40;;
67528;SDS011;54366;51.980;5.856;2024-03-29T02:40:30;2.85;;;0.50;;
67528;SDS011;54366;51.980;5.856;2024-03-29T02:42:57;1.10;;;0.30;;
67528;SDS011;54366;51.980;5.856;2024-03-29T02:45:23;1.90;;;0.40;;
67528;SDS011;54366;51.980;5.856;2024-03-29T02:47:49;2.55;;;0.52;;
67528;SDS011;54366;51.980;5.856;2024-03-29T02:50:16;2.05;;;0.50;;
67528;SDS011;54366;51.980;5.856;2024-03-29T02:52:42;1.42;;;0.30;;
67528;SDS011;54366;51.980;5.856;2024-03-29T02:55:08;1.27;;;0.55;;
67528;SDS011;54366;51.980;5.856;2024-03-29T02:57:36;1.38;;;0.30;;
67528;SDS011;54366;51.980;5.856;2024-03-29T03:00:07;2.17;;;0.40;;
67528;SDS011;54366;51.980;5.856;2024-03-29T03:02:40;1.40;;;0.40;;
67528;SDS011;54366;51.980;5.856;2024-03-29T03:05:07;1.50;;;0.30;;
67528;SDS011;54366;51.980;5.856;2024-03-29T03:07:34;1.88;;;0.40;;
67528;SDS011;54366;51.980;5.856;2024-03-29T03:10:19;1.48;;;0.32;;
67528;SDS011;54366;51.980;5.856;2024-03-29T03:13:04;1.63;;;0.40;;
67528;SDS011;54366;51.980;5.856;2024-03-29T03:15:31;1.20;;;0.38;;
67528;SDS011;54366;51.980;5.856;2024-03-29T03:17:57;1.38;;;0.50;;
67528;SDS011;54366;51.980;5.856;2024-03-29T03:20:23;1.10;;;0.28;;
67528;SDS011;54366;51.980;5.856;2024-03-29T03:22:53;2.05;;;0.40;;
67528;SDS011;54366;51.980;5.856;2024-03-29T03:25:21;1.17;;;0.30;;
67528;SDS011;54366;51.980;5.856;2024-03-29T03:27:47;2.63;;;0.40;;
67528;SDS011;54366;51.980;5.856;2024-03-29T03:30:14;2.05;;;0.40;;
67528;SDS011;54366;51.980;5.856;2024-03-29T03:32:41;3.17;;;0.40;;
67528;SDS011;54366;51.980;5.856;2024-03-29T03:35:07;2.65;;;0.40;;
67528;SDS011;54366;51.980;5.856;2024-03-29T03:37:34;1.75;;;0.40;;
67528;SDS011;54366;51.980;5.856;2024-03-29T03:40:00;1.02;;;0.50;;
67528;SDS011;54366;51.980;5.856;2024-03-29T03:42:26;1.63;;;0.40;;
67528;SDS011;54366;51.980;5.856;2024-03-29T03:44:53;1.40;;;0.30;;
67528;SDS011;54366;51.980;5.856;2024-03-29T03:47:19;1.70;;;0.40;;
67528;SDS011;54366;51.980;5.856;2024-03-29T03:49:45;1.73;;;0.30;;
67528;SDS011;54366;51.980;5.856;2024-03-29T03:52:11;1.58;;;0.70;;
67528;SDS011;54366;51.980;5.856;2024-03-29T03:54:38;2.38;;;0.50;;
67528;SDS011;54366;51.980;5.856;2024-03-29T03:57:04;2.50;;;0.30;;
67528;SDS011;54366;51.980;5.856;2024-03-29T03:59:31;1.13;;;0.30;;
67528;SDS011;54366;51.980;5.856;2024-03-29T04:01:57;1.27;;;0.35;;
67528;SDS011;54366;51.980;5.856;2024-03-29T04:04:23;1.38;;;0.40;;
67528;SDS011;54366;51.980;5.856;2024-03-29T04:06:50;1.20;;;0.43;;
67528;SDS011;54366;51.980;5.856;2024-03-29T04:09:16;1.00;;;0.30;;
67528;SDS011;54366;51.980;5.856;2024-03-29T04:11:43;1.30;;;0.20;;
67528;SDS011;54366;51.980;5.856;2024-03-29T04:14:09;1.27;;;0.30;;
67528;SDS011;54366;51.980;5.856;2024-03-29T04:16:35;1.52;;;0.30;;
67528;SDS011;54366;51.980;5.856;2024-03-29T04:19:02;2.45;;;0.30;;
67528;SDS011;54366;51.980;5.856;2024-03-29T04:21:28;1.45;;;0.20;;
67528;SDS011;54366;51.980;5.856;2024-03-29T04:23:54;0.45;;;0.20;;
67528;SDS011;54366;51.980;5.856;2024-03-29T04:26:21;0.93;;;0.20;;
67528;SDS011;54366;51.980;5.856;2024-03-29T04:28:47;0.80;;;0.20;;
67528;SDS011;54366;51.980;5.856;2024-03-29T04:31:14;1.65;;;0.20;;
67528;SDS011;54366;51.980;5.856;2024-03-29T04:33:40;1.08;;;0.20;;
67528;SDS011;54366;51.980;5.856;2024-03-29T04:36:06;0.65;;;0.20;;
67528;SDS011;54366;51.980;5.856;2024-03-29T04:38:33;0.25;;;0.10;;
67528;SDS011;54366;51.980;5.856;2024-03-29T04:40:59;1.05;;;0.20;;
67528;SDS011;54366;51.980;5.856;2024-03-29T04:43:26;0.75;;;0.20;;
67528;SDS011;54366;51.980;5.856;2024-03-29T04:46:09;0.38;;;0.10;;
67528;SDS011;54366;51.980;5.856;2024-03-29T04:48:37;1.00;;;0.20;;
67528;SDS011;54366;51.980;5.856;2024-03-29T04:51:04;0.65;;;0.13;;
67528;SDS011;54366;51.980;5.856;2024-03-29T04:53:30;0.40;;;0.20;;
67528;SDS011;54366;51.980;5.856;2024-03-29T04:55:57;0.40;;;0.20;;
67528;SDS011;54366;51.980;5.856;2024-03-29T04:58:24;0.70;;;0.20;;
67528;SDS011;54366;51.980;5.856;2024-03-29T05:00:51;0.65;;;0.20;;
67528;SDS011;54366;51.980;5.856;2024-03-29T05:03:17;2.28;;;0.30;;
67528;SDS011;54366;51.980;5.856;2024-03-29T05:05:45;1.25;;;0.20;;
67528;SDS011;54366;51.980;5.856;2024-03-29T05:08:12;0.82;;;0.20;;
67528;SDS011;54366;51.980;5.856;2024-03-29T05:10:39;0.73;;;0.20;;
67528;SDS011;54366;51.980;5.856;2024-03-29T05:13:06;1.67;;;0.20;;
67528;SDS011;54366;51.980;5.856;2024-03-29T05:15:32;0.68;;;0.20;;
67528;SDS011;54366;51.980;5.856;2024-03-29T05:17:59;0.88;;;0.20;;
67528;SDS011;54366;51.980;5.856;2024-03-29T05:20:25;1.30;;;0.20;;
67528;SDS011;54366;51.980;5.856;2024-03-29T05:22:51;0.52;;;0.20;;
67528;SDS011;54366;51.980;5.856;2024-03-29T05:25:18;1.40;;;0.20;;
67528;SDS011;54366;51.980;5.856;2024-03-29T05:27:44;0.47;;;0.20;;
67528;SDS011;54366;51.980;5.856;2024-03-29T05:30:10;1.55;;;0.20;;
67528;SDS011;54366;51.980;5.856;2024-03-29T05:32:37;0.88;;;0.30;;
67528;SDS011;54366;51.980;5.856;2024-03-29T05:35:03;0.93;;;0.40;;
67528;SDS011;54366;51.980;5.856;2024-03-29T05:37:30;1.08;;;0.40;;
67528;SDS011;54366;51.980;5.856;2024-03-29T05:39:56;0.80;;;0.30;;
67528;SDS011;54366;51.980;5.856;2024-03-29T05:42:26;1.73;;;0.35;;
67528;SDS011;54366;51.980;5.856;2024-03-29T05:44:52;0.93;;;0.20;;
67528;SDS011;54366;51.980;5.856;2024-03-29T05:47:19;1.05;;;0.40;;
67528;SDS011;54366;51.980;5.856;2024-03-29T05:49:45;1.00;;;0.30;;
67528;SDS011;54366;51.980;5.856;2024-03-29T05:52:12;1.23;;;0.30;;
67528;SDS011;54366;51.980;5.856;2024-03-29T05:54:39;1.08;;;0.30;;
67528;SDS011;54366;51.980;5.856;2024-03-29T05:57:06;0.22;;;0.10;;
67528;SDS011;54366;51.980;5.856;2024-03-29T05:59:34;1.23;;;0.20;;
67528;SDS011;54366;51.980;5.856;2024-03-29T06:02:01;0.40;;;0.20;;
67528;SDS011;54366;51.980;5.856;2024-03-29T06:04:27;0.75;;;0.20;;
67528;SDS011;54366;51.980;5.856;2024-03-29T06:07:01;0.60;;;0.20;;
67528;SDS011;54366;51.980;5.856;2024-03-29T06:09:28;0.80;;;0.10;;
67528;SDS011;54366;51.980;5.856;2024-03-29T06:11:55;0.47;;;0.20;;
67528;SDS011;54366;51.980;5.856;2024-03-29T06:14:22;0.30;;;0.20;;
67528;SDS011;54366;51.980;5.856;2024-03-29T06:17:08;1.65;;;0.20;;
67528;SDS011;54366;51.980;5.856;2024-03-29T06:19:54;0.40;;;0.20;;
67528;SDS011;54366;51.980;5.856;2024-03-29T06:22:22;0.35;;;0.10;;
67528;SDS011;54366;51.980;5.856;2024-03-29T06:24:49;1.33;;;0.30;;
67528;SDS011;54366;51.980;5.856;2024-03-29T06:27:17;0.40;;;0.10;;
67528;SDS011;54366;51.980;5.856;2024-03-29T06:29:46;0.63;;;0.10;;
67528;SDS011;54366;51.980;5.856;2024-03-29T06:32:13;0.22;;;0.10;;
67528;SDS011;54366;51.980;5.856;2024-03-29T06:34:39;0.73;;;0.10;;
67528;SDS011;54366;51.980;5.856;2024-03-29T06:37:06;0.70;;;0.10;;
67528;SDS011;54366;51.980;5.856;2024-03-29T06:39:33;0.38;;;0.20;;
67528;SDS011;54366;51.980;5.856;2024-03-29T06:41:59;0.68;;;0.20;;
67528;SDS011;54366;51.980;5.856;2024-03-29T06:44:25;0.45;;;0.20;;
67528;SDS011;54366;51.980;5.856;2024-03-29T06:46:52;0.52;;;0.10;;
67528;SDS011;54366;51.980;5.856;2024-03-29T06:49:18;1.10;;;0.30;;
67528;SDS011;54366;51.980;5.856;2024-03-29T06:51:44;1.42;;;0.30;;
67528;SDS011;54366;51.980;5.856;2024-03-29T06:54:10;0.40;;;0.10;;
67528;SDS011;54366;51.980;5.856;2024-03-29T06:56:37;1.02;;;0.22;;
67528;SDS011;54366;51.980;5.856;2024-03-29T06:59:04;0.70;;;0.25;;
67528;SDS011;54366;51.980;5.856;2024-03-29T07:01:30;0.57;;;0.20;;
67528;SDS011;54366;51.980;5.856;2024-03-29T07:03:56;0.68;;;0.30;;
67528;SDS011;54366;51.980;5.856;2024-03-29T07:06:23;0.50;;;0.20;;
67528;SDS011;54366;51.980;5.856;2024-03-29T07:08:49;0.60;;;0.28;;
67528;SDS011;54366;51.980;5.856;2024-03-29T07:11:15;0.82;;;0.20;;
67528;SDS011;54366;51.980;5.856;2024-03-29T07:13:42;1.05;;;0.30;;
67528;SDS011;54366;51.980;5.856;2024-03-29T07:16:08;0.57;;;0.30;;
67528;SDS011;54366;51.980;5.856;2024-03-29T07:18:34;0.88;;;0.20;;
67528;SDS011;54366;51.980;5.856;2024-03-29T07:21:01;0.85;;;0.30;;
67528;SDS011;54366;51.980;5.856;2024-03-29T07:23:27;0.77;;;0.30;;
67528;SDS011;54366;51.980;5.856;2024-03-29T07:26:00;0.70;;;0.20;;
67528;SDS011;54366;51.980;5.856;2024-03-29T07:28:28;0.43;;;0.10;;
67528;SDS011;54366;51.980;5.856;2024-03-29T07:30:55;1.70;;;0.30;;
67528;SDS011;54366;51.980;5.856;2024-03-29T07:33:23;0.52;;;0.30;;
67528;SDS011;54366;51.980;5.856;2024-03-29T07:35:52;0.88;;;0.30;;
67528;SDS011;54366;51.980;5.856;2024-03-29T07:38:19;0.70;;;0.55;;
67528;SDS011;54366;51.980;5.856;2024-03-29T07:40:51;0.40;;;0.30;;
67528;SDS011;54366;51.980;5.856;2024-03-29T07:43:18;0.82;;;0.10;;
67528;SDS011;54366;51.980;5.856;2024-03-29T07:45:44;0.30;;;0.20;;
67528;SDS011;54366;51.980;5.856;2024-03-29T07:48:12;1.00;;;0.20;;
67528;SDS011;54366;51.980;5.856;2024-03-29T07:50:39;0.43;;;0.20;;
67528;SDS011;54366;51.980;5.856;2024-03-29T07:53:06;0.50;;;0.38;;
67528;SDS011;54366;51.980;5.856;2024-03-29T07:55:34;0.40;;;0.20;;
67528;SDS011;54366;51.980;5.856;2024-03-29T07:58:01;0.55;;;0.30;;
67528;SDS011;54366;51.980;5.856;2024-03-29T08:00:30;0.43;;;0.20;;
67528;SDS011;54366;51.980;5.856;2024-03-29T08:02:57;0.38;;;0.20;;
67528;SDS011;54366;51.980;5.856;2024-03-29T08:05:24;1.13;;;0.30;;
67528;SDS011;54366;51.980;5.856;2024-03-29T08:07:50;0.95;;;0.30;;
67528;SDS011;54366;51.980;5.856;2024-03-29T08:10:16;0.73;;;0.30;;
67528;SDS011;54366;51.980;5.856;2024-03-29T08:12:43;0.43;;;0.10;;
67528;SDS011;54366;51.980;5.856;2024-03-29T08:15:09;0.52;;;0.20;;
67528;SDS011;54366;51.980;5.856;2024-03-29T08:17:36;0.65;;;0.20;;
67528;SDS011;54366;51.980;5.856;2024-03-29T08:20:03;1.08;;;0.47;;
67528;SDS011;54366;51.980;5.856;2024-03-29T08:22:30;1.85;;;0.30;;
67528;SDS011;54366;51.980;5.856;2024-03-29T08:24:59;0.63;;;0.30;;
67528;SDS011;54366;51.980;5.856;2024-03-29T08:27:28;0.30;;;0.20;;
67528;SDS011;54366;51.980;5.856;2024-03-29T08:29:55;0.70;;;0.30;;
67528;SDS011;54366;51.980;5.856;2024-03-29T08:32:21;0.68;;;0.30;;
67528;SDS011;54366;51.980;5.856;2024-03-29T08:34:48;0.60;;;0.20;;
67528;SDS011;54366;51.980;5.856;2024-03-29T08:37:14;1.17;;;0.28;;
67528;SDS011;54366;51.980;5.856;2024-03-29T08:39:40;0.43;;;0.30;;
67528;SDS011;54366;51.980;5.856;2024-03-29T08:42:07;0.73;;;0.40;;
67528;SDS011;54366;51.980;5.856;2024-03-29T08:44:36;1.10;;;0.20;;
67528;SDS011;54366;51.980;5.856;2024-03-29T08:47:04;0.30;;;0.20;;
67528;SDS011;54366;51.980;5.856;2024-03-29T08:49:31;1.25;;;0.30;;
67528;SDS011;54366;51.980;5.856;2024-03-29T08:51:57;0.43;;;0.20;;
67528;SDS011;54366;51.980;5.856;2024-03-29T08:54:26;0.55;;;0.20;;
67528;SDS011;54366;51.980;5.856;2024-03-29T08:56:53;0.43;;;0.20;;
67528;SDS011;54366;51.980;5.856;2024-03-29T08:59:20;0.50;;;0.20;;
67528;SDS011;54366;51.980;5.856;2024-03-29T09:01:46;0.65;;;0.20;;
67528;SDS011;54366;51.980;5.856;2024-03-29T09:04:15;0.57;;;0.22;;
67528;SDS011;54366;51.980;5.856;2024-03-29T09:06:41;0.22;;;0.20;;
67528;SDS011;54366;51.980;5.856;2024-03-29T09:09:08;0.93;;;0.30;;
67528;SDS011;54366;51.980;5.856;2024-03-29T09:11:35;1.00;;;0.38;;
67528;SDS011;54366;51.980;5.856;2024-03-29T09:14:02;0.75;;;0.30;;
67528;SDS011;54366;51.980;5.856;2024-03-29T09:16:30;1.00;;;0.30;;
67528;SDS011;54366;51.980;5.856;2024-03-29T09:18:56;1.60;;;0.30;;
67528;SDS011;54366;51.980;5.856;2024-03-29T09:21:23;0.98;;;0.40;;
67528;SDS011;54366;51.980;5.856;2024-03-29T09:23:49;0.38;;;0.20;;
67528;SDS011;54366;51.980;5.856;2024-03-29T09:26:18;0.90;;;0.35;;
67528;SDS011;54366;51.980;5.856;2024-03-29T09:28:45;0.80;;;0.40;;
67528;SDS011;54366;51.980;5.856;2024-03-29T09:31:11;1.13;;;0.47;;
67528;SDS011;54366;51.980;5.856;2024-03-29T09:33:37;1.00;;;0.40;;
67528;SDS011;54366;51.980;5.856;2024-03-29T09:36:04;1.05;;;0.40;;
67528;SDS011;54366;51.980;5.856;2024-03-29T09:38:30;1.00;;;0.50;;
67528;SDS011;54366;51.980;5.856;2024-03-29T09:41:01;0.90;;;0.50;;
67528;SDS011;54366;51.980;5.856;2024-03-29T09:43:36;0.93;;;0.30;;
67528;SDS011;54366;51.980;5.856;2024-03-29T09:46:02;1.58;;;0.40;;
67528;SDS011;54366;51.980;5.856;2024-03-29T09:48:29;0.60;;;0.50;;
67528;SDS011;54366;51.980;5.856;2024-03-29T09:51:05;1.65;;;0.45;;
67528;SDS011;54366;51.980;5.856;2024-03-29T09:53:38;1.45;;;0.50;;
67528;SDS011;54366;51.980;5.856;2024-03-29T09:56:06;1.77;;;0.43;;
67528;SDS011;54366;51.980;5.856;2024-03-29T09:58:33;0.77;;;0.20;;
67528;SDS011;54366;51.980;5.856;2024-03-29T10:01:01;0.60;;;0.40;;
67528;SDS011;54366;51.980;5.856;2024-03-29T10:03:29;1.38;;;0.70;;
67528;SDS011;54366;51.980;5.856;2024-03-29T10:05:59;1.30;;;0.50;;
67528;SDS011;54366;51.980;5.856;2024-03-29T10:08:26;1.30;;;0.50;;
67528;SDS011;54366;51.980;5.856;2024-03-29T10:10:55;0.60;;;0.38;;
67528;SDS011;54366;51.980;5.856;2024-03-29T10:13:22;2.55;;;0.80;;
67528;SDS011;54366;51.980;5.856;2024-03-29T10:15:52;1.40;;;0.47;;
67528;SDS011;54366;51.980;5.856;2024-03-29T10:18:24;2.47;;;0.88;;
67528;SDS011;54366;51.980;5.856;2024-03-29T10:21:05;1.65;;;0.60;;
67528;SDS011;54366;51.980;5.856;2024-03-29T10:23:36;1.38;;;0.40;;
67528;SDS011;54366;51.980;5.856;2024-03-29T10:26:02;1.40;;;0.50;;
67528;SDS011;54366;51.980;5.856;2024-03-29T10:28:35;0.63;;;0.50;;
67528;SDS011;54366;51.980;5.856;2024-03-29T10:31:03;0.98;;;0.50;;
67528;SDS011;54366;51.980;5.856;2024-03-29T10:33:30;1.65;;;0.65;;
67528;SDS011;54366;51.980;5.856;2024-03-29T10:35:58;1.42;;;0.60;;
67528;SDS011;54366;51.980;5.856;2024-03-29T10:38:26;1.42;;;0.57;;
67528;SDS011;54366;51.980;5.856;2024-03-29T10:40:53;1.23;;;0.60;;
67528;SDS011;54366;51.980;5.856;2024-03-29T10:43:20;2.50;;;0.80;;
67528;SDS011;54366;51.980;5.856;2024-03-29T10:45:50;1.10;;;0.50;;
67528;SDS011;54366;51.980;5.856;2024-03-29T10:48:18;1.48;;;0.60;;
67528;SDS011;54366;51.980;5.856;2024-03-29T10:50:46;1.63;;;0.73;;
67528;SDS011;54366;51.980;5.856;2024-03-29T10:53:13;0.93;;;0.60;;
67528;SDS011;54366;51.980;5.856;2024-03-29T10:55:43;1.65;;;0.52;;
67528;SDS011;54366;51.980;5.856;2024-03-29T10:58:10;1.58;;;0.70;;
67528;SDS011;54366;51.980;5.856;2024-03-29T11:00:38;1.50;;;0.75;;
67528;SDS011;54366;51.980;5.856;2024-03-29T11:03:23;0.60;;;0.57;;
67528;SDS011;54366;51.980;5.856;2024-03-29T11:06:03;1.55;;;0.90;;
67528;SDS011;54366;51.980;5.856;2024-03-29T11:08:34;1.00;;;0.45;;
67528;SDS011;54366;51.980;5.856;2024-03-29T11:11:04;1.02;;;0.60;;
67528;SDS011;54366;51.980;5.856;2024-03-29T11:16:24;1.10;;;0.60;;
67528;SDS011;54366;51.980;5.856;2024-03-29T11:18:51;1.42;;;0.70;;
67528;SDS011;54366;51.980;5.856;2024-03-29T11:21:18;0.65;;;0.50;;
67528;SDS011;54366;51.980;5.856;2024-03-29T11:23:49;1.85;;;0.50;;
67528;SDS011;54366;51.980;5.856;2024-03-29T11:26:16;1.10;;;0.60;;
67528;SDS011;54366;51.980;5.856;2024-03-29T11:28:47;2.00;;;0.55;;
67528;SDS011;54366;51.980;5.856;2024-03-29T11:31:15;2.50;;;0.80;;
67528;SDS011;54366;51.980;5.856;2024-03-29T11:33:45;0.60;;;0.50;;
67528;SDS011;54366;51.980;5.856;2024-03-29T11:36:17;1.52;;;0.60;;
67528;SDS011;54366;51.980;5.856;2024-03-29T11:38:47;1.05;;;0.60;;
67528;SDS011;54366;51.980;5.856;2024-03-29T11:41:18;0.93;;;0.30;;
67528;SDS011;54366;51.980;5.856;2024-03-29T11:43:49;0.73;;;0.40;;
67528;SDS011;54366;51.980;5.856;2024-03-29T11:46:17;1.30;;;0.50;;
67528;SDS011;54366;51.980;5.856;2024-03-29T11:48:44;1.17;;;0.35;;
67528;SDS011;54366;51.980;5.856;2024-03-29T11:51:17;2.90;;;0.63;;
67528;SDS011;54366;51.980;5.856;2024-03-29T11:53:47;0.40;;;0.30;;
67528;SDS011;54366;51.980;5.856;2024-03-29T11:56:16;1.38;;;0.40;;
67528;SDS011;54366;51.980;5.856;2024-03-29T11:58:43;0.35;;;0.30;;
67528;SDS011;54366;51.980;5.856;2024-03-29T12:01:09;0.60;;;0.50;;
67528;SDS011;54366;51.980;5.856;2024-03-29T12:03:39;0.60;;;0.40;;
67528;SDS011;54366;51.980;5.856;2024-03-29T12:06:06;1.02;;;0.50;;
67528;SDS011;54366;51.980;5.856;2024-03-29T12:08:34;0.77;;;0.40;;
67528;SDS011;54366;51.980;5.856;2024-03-29T12:11:03;0.43;;;0.30;;
67528;SDS011;54366;51.980;5.856;2024-03-29T12:13:30;0.90;;;0.43;;
67528;SDS011;54366;51.980;5.856;2024-03-29T12:15:57;0.52;;;0.45;;
67528;SDS011;54366;51.980;5.856;2024-03-29T12:18:25;0.80;;;0.40;;
67528;SDS011;54366;51.980;5.856;2024-03-29T12:20:53;1.20;;;0.40;;
67528;SDS011;54366;51.980;5.856;2024-03-29T12:23:21;0.95;;;0.35;;
67528;SDS011;54366;51.980;5.856;2024-03-29T12:28:15;0.43;;;0.20;;
67528;SDS011;54366;51.980;5.856;2024-03-29T12:30:42;0.73;;;0.30;;
67528;SDS011;54366;51.980;5.856;2024-03-29T12:33:17;0.75;;;0.50;;
67528;SDS011;54366;51.980;5.856;2024-03-29T12:35:47;0.88;;;0.30;;
67528;SDS011;54366;51.980;5.856;2024-03-29T12:38:15;0.65;;;0.20;;
67528;SDS011;54366;51.980;5.856;2024-03-29T12:40:45;0.95;;;0.20;;
67528;SDS011;54366;51.980;5.856;2024-03-29T12:43:20;0.75;;;0.30;;
67528;SDS011;54366;51.980;5.856;2024-03-29T12:45:48;0.55;;;0.32;;
67528;SDS011;54366;51.980;5.856;2024-03-29T12:48:18;0.70;;;0.30;;
67528;SDS011;54366;51.980;5.856;2024-03-29T12:50:46;0.45;;;0.30;;
67528;SDS011;54366;51.980;5.856;2024-03-29T12:53:14;1.30;;;0.40;;
67528;SDS011;54366;51.980;5.856;2024-03-29T12:55:42;0.40;;;0.30;;
67528;SDS011;54366;51.980;5.856;2024-03-29T12:58:16;0.60;;;0.28;;
67528;SDS011;54366;51.980;5.856;2024-03-29T13:00:44;0.77;;;0.30;;
67528;SDS011;54366;51.980;5.856;2024-03-29T13:03:10;0.50;;;0.30;;
67528;SDS011;54366;51.980;5.856;2024-03-29T13:05:37;1.08;;;0.30;;
67528;SDS011;54366;51.980;5.856;2024-03-29T13:08:08;0.57;;;0.28;;
67528;SDS011;54366;51.980;5.856;2024-03-29T13:10:43;0.40;;;0.20;;
67528;SDS011;54366;51.980;5.856;2024-03-29T13:13:10;0.52;;;0.30;;
67528;SDS011;54366;51.980;5.856;2024-03-29T13:15:37;0.60;;;0.30;;
67528;SDS011;54366;51.980;5.856;2024-03-29T13:18:05;0.70;;;0.22;;
67528;SDS011;54366;51.980;5.856;2024-03-29T13:20:32;1.33;;;0.30;;
67528;SDS011;54366;51.980;5.856;2024-03-29T13:23:02;0.38;;;0.20;;
67528;SDS011;54366;51.980;5.856;2024-03-29T13:25:29;0.35;;;0.20;;
67528;SDS011;54366;51.980;5.856;2024-03-29T13:27:55;0.30;;;0.20;;
67528;SDS011;54366;51.980;5.856;2024-03-29T13:30:22;0.50;;;0.20;;
67528;SDS011;54366;51.980;5.856;2024-03-29T13:32:49;0.28;;;0.20;;
67528;SDS011;54366;51.980;5.856;2024-03-29T13:35:16;0.70;;;0.20;;
67528;SDS011;54366;51.980;5.856;2024-03-29T13:37:45;0.20;;;0.20;;
67528;SDS011;54366;51.980;5.856;2024-03-29T13:40:14;0.28;;;0.28;;
67528;SDS011;54366;51.980;5.856;2024-03-29T13:42:41;1.75;;;0.20;;
67528;SDS011;54366;51.980;5.856;2024-03-29T13:45:08;0.35;;;0.20;;
67528;SDS011;54366;51.980;5.856;2024-03-29T13:47:36;0.30;;;0.20;;
67528;SDS011;54366;51.980;5.856;2024-03-29T13:50:07;1.35;;;0.10;;
67528;SDS011;54366;51.980;5.856;2024-03-29T13:52:34;0.25;;;0.13;;
67528;SDS011;54366;51.980;5.856;2024-03-29T13:55:01;1.23;;;0.20;;
67528;SDS011;54366;51.980;5.856;2024-03-29T13:57:29;0.50;;;0.20;;
67528;SDS011;54366;51.980;5.856;2024-03-29T13:59:59;0.43;;;0.13;;
67528;SDS011;54366;51.980;5.856;2024-03-29T14:02:26;0.20;;;0.13;;
67528;SDS011;54366;51.980;5.856;2024-03-29T14:04:53;0.30;;;0.10;;
67528;SDS011;54366;51.980;5.856;2024-03-29T14:07:20;0.38;;;0.20;;
67528;SDS011;54366;51.980;5.856;2024-03-29T14:09:50;0.13;;;0.10;;
67528;SDS011;54366;51.980;5.856;2024-03-29T14:12:17;0.30;;;0.20;;
67528;SDS011;54366;51.980;5.856;2024-03-29T14:14:50;0.32;;;0.20;;
67528;SDS011;54366;51.980;5.856;2024-03-29T14:17:18;0.50;;;0.10;;
67528;SDS011;54366;51.980;5.856;2024-03-29T14:19:45;0.20;;;0.10;;
67528;SDS011;54366;51.980;5.856;2024-03-29T14:22:11;0.20;;;0.10;;
67528;SDS011;54366;51.980;5.856;2024-03-29T14:27:11;0.55;;;0.10;;
67528;SDS011;54366;51.980;5.856;2024-03-29T14:29:41;0.10;;;0.10;;
67528;SDS011;54366;51.980;5.856;2024-03-29T14:32:10;0.52;;;0.10;;
67528;SDS011;54366;51.980;5.856;2024-03-29T14:34:36;0.17;;;0.10;;
67528;SDS011;54366;51.980;5.856;2024-03-29T14:37:05;0.20;;;0.10;;
67528;SDS011;54366;51.980;5.856;2024-03-29T14:39:31;0.40;;;0.20;;
67528;SDS011;54366;51.980;5.856;2024-03-29T14:41:57;0.85;;;0.20;;
67528;SDS011;54366;51.980;5.856;2024-03-29T14:44:26;0.30;;;0.17;;
67528;SDS011;54366;51.980;5.856;2024-03-29T14:46:53;0.43;;;0.25;;
67528;SDS011;54366;51.980;5.856;2024-03-29T14:49:19;0.88;;;0.70;;
67528;SDS011;54366;51.980;5.856;2024-03-29T14:51:46;0.82;;;0.50;;
67528;SDS011;54366;51.980;5.856;2024-03-29T14:54:12;0.75;;;0.50;;
67528;SDS011;54366;51.980;5.856;2024-03-29T14:56:38;0.30;;;0.30;;
67528;SDS011;54366;51.980;5.856;2024-03-29T14:59:05;0.20;;;0.10;;